Time;durP1;ratioP1;P1;durP2;ratioP2;P2;SDS_P1;SDS_P2;PMS_P1;PMS_P2;Temp;Humidity;BMP_temperature;BMP_pressure;BME280_temperature;BME280_humidity;BME280_pressure;Samples;Min_cycle;Max_cycle;Signal;HPM_P1;HPM_P2
2022/06/30 00:01:36;;;;;;;2.78;2.08;;;22.30;67.70;;;;;;6205125;23;20019;-76
2022/06/30 00:04:02;;;;;;;2.30;2.10;;;22.30;67.50;;;;;;6242606;23;20378;-76
2022/06/30 00:06:28;;;;;;;3.08;2.60;;;22.20;67.50;;;;;;6232385;23;20016;-76
2022/06/30 00:08:54;;;;;;;3.00;2.42;;;22.20;67.70;;;;;;6206004;23;20015;-76
2022/06/30 00:11:20;;;;;;;2.75;2.50;;;22.20;67.80;;;;;;6232505;23;20088;-76
2022/06/30 00:13:46;;;;;;;2.38;2.03;;;22.10;67.90;;;;;;6242385;23;20091;-77
2022/06/30 00:16:12;;;;;;;3.00;2.30;;;22.10;67.70;;;;;;6243539;23;20089;-77
2022/06/30 00:18:38;;;;;;;2.47;2.08;;;22.10;67.80;;;;;;6205014;23;20012;-76
2022/06/30 00:21:05;;;;;;;2.75;2.15;;;22.10;67.80;;;;;;6242700;23;20083;-76
2022/06/30 00:23:31;;;;;;;2.80;2.30;;;22.00;67.40;;;;;;6232214;23;20934;-76
2022/06/30 00:25:57;;;;;;;4.53;2.30;;;22.00;67.60;;;;;;6242354;23;20000;-76
2022/06/30 00:28:23;;;;;;;3.13;2.22;;;21.90;67.90;;;;;;6231671;23;20454;-76
2022/06/30 00:30:51;;;;;;;3.05;2.33;;;21.90;68.10;;;;;;6232705;23;20015;-76
2022/06/30 00:33:17;;;;;;;2.30;1.95;;;21.80;68.40;;;;;;6231264;23;20007;-76
2022/06/30 00:35:44;;;;;;;4.50;2.17;;;21.80;68.00;;;;;;6241929;23;20003;-76
2022/06/30 00:38:10;;;;;;;3.85;2.15;;;21.70;67.90;;;;;;6231813;23;20098;-76
2022/06/30 00:40:37;;;;;;;3.35;2.22;;;21.70;68.80;;;;;;6231681;23;20015;-76
2022/06/30 00:43:03;;;;;;;2.33;2.10;;;21.60;68.50;;;;;;6242314;23;20004;-76
2022/06/30 00:45:29;;;;;;;3.80;2.33;;;21.60;68.90;;;;;;6231692;23;20016;-76
2022/06/30 00:47:55;;;;;;;2.67;1.98;;;21.70;69.50;;;;;;6232044;23;20012;-76
2022/06/30 00:50:21;;;;;;;2.42;2.13;;;21.80;68.40;;;;;;6230855;23;20097;-76
2022/06/30 00:52:50;;;;;;;4.85;1.90;;;21.90;68.00;;;;;;6231826;23;20012;-75
2022/06/30 00:55:17;;;;;;;2.20;1.90;;;22.00;67.70;;;;;;6231227;23;20004;-76
2022/06/30 00:57:44;;;;;;;3.75;2.10;;;22.10;67.40;;;;;;6215275;23;20082;-76
2022/06/30 01:00:11;;;;;;;2.40;1.98;;;22.20;66.90;;;;;;6231791;22;20426;-76
2022/06/30 01:02:37;;;;;;;3.95;2.72;;;22.20;67.00;;;;;;6231786;23;20024;-75
2022/06/30 01:05:04;;;;;;;4.45;2.05;;;22.20;67.20;;;;;;6241699;23;20130;-76
2022/06/30 01:07:30;;;;;;;2.45;2.22;;;22.20;67.20;;;;;;6231350;23;20034;-76
2022/06/30 01:12:47;;;;;;;2.55;2.35;;;22.20;67.20;;;;;;6231000;23;20586;-76
2022/06/30 01:15:18;;;;;;;4.50;2.50;;;22.20;67.50;;;;;;6231270;23;20008;-76
2022/06/30 01:17:46;;;;;;;2.55;2.10;;;22.30;67.50;;;;;;6230857;23;20091;-76
2022/06/30 01:20:13;;;;;;;2.75;2.25;;;22.30;67.20;;;;;;6231411;23;20073;-76
2022/06/30 01:22:39;;;;;;;3.03;2.20;;;22.30;67.40;;;;;;6241814;23;20012;-76
2022/06/30 01:25:06;;;;;;;3.83;2.17;;;22.30;67.20;;;;;;6231350;23;20084;-75
2022/06/30 01:27:32;;;;;;;2.30;2.10;;;22.30;67.00;;;;;;6231191;23;20493;-76
2022/06/30 01:29:58;;;;;;;2.70;2.47;;;22.20;67.30;;;;;;6231346;23;20062;-76
2022/06/30 01:32:25;;;;;;;2.70;2.08;;;22.20;67.40;;;;;;6230323;23;20007;-76
2022/06/30 01:34:52;;;;;;;2.70;2.20;;;22.30;67.30;;;;;;6231316;23;20636;-75
2022/06/30 01:37:18;;;;;;;3.45;2.35;;;22.30;67.40;;;;;;6232044;23;20012;-76
2022/06/30 01:39:44;;;;;;;3.53;2.30;;;22.30;68.30;;;;;;6240713;23;20008;-75
2022/06/30 01:42:10;;;;;;;2.65;2.15;;;22.30;67.70;;;;;;6243486;23;20104;-76
2022/06/30 01:44:37;;;;;;;2.80;2.10;;;22.30;67.60;;;;;;6234422;23;20559;-79
2022/06/30 01:47:03;;;;;;;3.33;2.33;;;22.30;67.80;;;;;;6233460;23;20043;-79
2022/06/30 01:49:28;;;;;;;3.88;2.30;;;22.30;68.00;;;;;;6232692;23;19997;-79
2022/06/30 01:51:54;;;;;;;2.10;1.88;;;22.30;68.00;;;;;;6241023;23;20011;-79
2022/06/30 01:54:21;;;;;;;3.13;2.05;;;22.30;67.80;;;;;;6230690;23;20004;-79
2022/06/30 01:56:46;;;;;;;3.20;2.25;;;22.40;67.80;;;;;;6241414;23;20019;-79
2022/06/30 01:59:13;;;;;;;3.22;2.30;;;22.40;67.70;;;;;;6230998;23;20012;-79
2022/06/30 02:01:39;;;;;;;2.70;2.13;;;22.40;67.50;;;;;;6240795;23;20039;-79
2022/06/30 02:06:50;;;;;;;5.15;2.55;;;22.50;67.50;;;;;;6204302;23;20008;-79
2022/06/30 02:09:16;;;;;;;5.05;2.10;;;22.50;67.30;;;;;;6205672;23;20014;-80
2022/06/30 02:11:41;;;;;;;2.10;1.90;;;22.60;67.20;;;;;;6233274;23;20114;-80
2022/06/30 02:14:07;;;;;;;3.50;2.22;;;22.70;66.90;;;;;;6233347;23;20509;-80
2022/06/30 02:16:33;;;;;;;4.65;2.10;;;22.70;67.00;;;;;;6234019;23;20446;-80
2022/06/30 02:18:58;;;;;;;2.83;1.92;;;22.70;67.00;;;;;;6233909;23;20442;-80
2022/06/30 02:21:24;;;;;;;2.90;2.38;;;22.70;67.10;;;;;;6234101;23;20008;-80
2022/06/30 02:23:53;;;;;;;2.55;2.05;;;22.60;67.30;;;;;;6233874;23;20027;-80
2022/06/30 02:26:19;;;;;;;2.63;1.95;;;22.70;67.30;;;;;;6244137;23;20079;-80
2022/06/30 02:28:45;;;;;;;2.80;2.20;;;22.70;67.40;;;;;;6243552;23;20008;-80
2022/06/30 02:31:12;;;;;;;3.65;2.35;;;22.70;67.30;;;;;;6234364;23;20229;-80
2022/06/30 02:33:42;;;;;;;2.85;2.10;;;22.70;67.50;;;;;;6234375;23;20004;-80
2022/06/30 02:36:08;;;;;;;3.03;2.03;;;22.60;67.90;;;;;;6233617;23;20438;-80
2022/06/30 02:38:34;;;;;;;2.83;2.08;;;22.60;68.10;;;;;;6233318;23;20000;-79
2022/06/30 02:41:00;;;;;;;2.92;2.35;;;22.60;68.10;;;;;;6244064;23;20000;-79
2022/06/30 02:43:26;;;;;;;2.55;2.25;;;22.60;68.20;;;;;;6233535;23;20458;-80
2022/06/30 02:45:51;;;;;;;3.03;2.00;;;22.60;68.50;;;;;;6233754;23;20119;-79
2022/06/30 02:48:18;;;;;;;8.02;2.20;;;22.60;68.60;;;;;;6243622;23;20004;-80
2022/06/30 02:50:45;;;;;;;3.35;2.10;;;22.60;68.80;;;;;;6233716;23;20397;-80
2022/06/30 02:53:11;;;;;;;2.70;2.13;;;22.50;68.70;;;;;;6243594;23;20050;-80
2022/06/30 02:55:37;;;;;;;3.05;2.42;;;22.60;68.80;;;;;;6233585;23;20449;-80
2022/06/30 02:58:04;;;;;;;3.28;2.20;;;22.60;69.00;;;;;;6243443;23;20012;-80
2022/06/30 03:00:30;;;;;;;3.80;1.83;;;22.50;69.20;;;;;;6233849;23;20019;-80
2022/06/30 03:02:57;;;;;;;4.35;2.00;;;22.50;69.30;;;;;;6242563;23;20035;-80
2022/06/30 03:05:24;;;;;;;2.42;2.20;;;22.50;69.70;;;;;;6232695;23;20606;-79
2022/06/30 03:07:50;;;;;;;2.30;2.10;;;22.40;69.80;;;;;;6231774;23;20022;-80
2022/06/30 03:10:16;;;;;;;3.78;2.33;;;22.40;70.00;;;;;;6230182;23;20784;-80
2022/06/30 03:12:42;;;;;;;4.03;2.13;;;22.40;70.10;;;;;;6204634;23;20011;-80
2022/06/30 03:15:08;;;;;;;4.30;2.22;;;22.40;70.30;;;;;;6232414;23;20043;-79
2022/06/30 03:17:34;;;;;;;3.35;2.17;;;22.40;70.50;;;;;;6231605;23;20012;-80
2022/06/30 03:20:00;;;;;;;2.67;2.42;;;22.30;70.80;;;;;;6232063;23;20023;-79
2022/06/30 03:22:26;;;;;;;6.50;2.30;;;22.30;71.20;;;;;;6231659;23;20016;-79
2022/06/30 03:24:51;;;;;;;2.60;2.15;;;22.30;71.60;;;;;;6241058;23;20070;-79
2022/06/30 03:27:18;;;;;;;4.38;2.25;;;22.20;72.00;;;;;;6232155;23;20008;-80
2022/06/30 03:29:44;;;;;;;3.40;2.22;;;22.20;72.40;;;;;;6231628;23;20008;-79
2022/06/30 03:32:10;;;;;;;3.38;2.15;;;22.10;72.60;;;;;;6241910;23;20026;-79
2022/06/30 03:34:36;;;;;;;9.00;2.45;;;22.10;72.90;;;;;;6231063;23;21002;-80
2022/06/30 03:37:02;;;;;;;3.65;2.15;;;22.10;72.80;;;;;;6232098;23;20093;-80
2022/06/30 03:39:27;;;;;;;4.10;2.50;;;22.10;72.90;;;;;;6231074;23;20577;-80
2022/06/30 03:41:53;;;;;;;3.63;2.20;;;22.20;72.60;;;;;;6242945;23;20004;-80
2022/06/30 03:44:19;;;;;;;5.18;2.30;;;22.30;72.60;;;;;;6231828;23;20012;-80
2022/06/30 03:46:45;;;;;;;6.18;2.42;;;22.20;72.40;;;;;;6231691;23;20508;-80
2022/06/30 03:49:11;;;;;;;5.60;2.30;;;22.20;72.80;;;;;;6232011;23;20015;-80
2022/06/30 03:51:37;;;;;;;3.15;2.30;;;22.30;72.60;;;;;;6231606;23;20004;-79
2022/06/30 03:54:03;;;;;;;4.63;2.58;;;22.30;72.30;;;;;;6231087;23;20008;-80
2022/06/30 03:56:29;;;;;;;3.90;2.50;;;22.30;72.70;;;;;;6231165;23;20016;-80
2022/06/30 03:58:55;;;;;;;3.15;2.30;;;22.40;72.30;;;;;;6231119;23;20019;-79
2022/06/30 04:01:20;;;;;;;3.33;2.40;;;22.40;72.60;;;;;;6232464;23;20031;-76
2022/06/30 04:03:46;;;;;;;4.85;2.65;;;22.50;72.20;;;;;;6232930;23;20389;-76
2022/06/30 04:06:12;;;;;;;3.55;2.42;;;22.60;72.10;;;;;;6233411;23;20016;-76
2022/06/30 04:08:38;;;;;;;4.47;2.35;;;22.60;71.50;;;;;;6242217;23;19992;-76
2022/06/30 04:11:04;;;;;;;2.70;2.28;;;22.80;71.00;;;;;;6231881;23;20316;-76
2022/06/30 04:13:29;;;;;;;4.03;2.53;;;22.80;70.80;;;;;;6241599;23;20035;-76
2022/06/30 04:15:55;;;;;;;5.28;2.78;;;22.80;70.90;;;;;;6231449;23;19996;-76
2022/06/30 04:18:21;;;;;;;3.55;2.13;;;22.90;70.60;;;;;;6229234;23;20940;-76
2022/06/30 04:20:47;;;;;;;4.85;2.30;;;22.90;70.30;;;;;;6232465;23;20000;-76
2022/06/30 04:23:13;;;;;;;5.15;2.63;;;23.00;70.40;;;;;;6231023;23;20453;-76
2022/06/30 04:25:39;;;;;;;4.13;2.10;;;23.00;70.80;;;;;;6231230;23;20053;-76
2022/06/30 04:28:05;;;;;;;4.50;2.63;;;23.10;70.20;;;;;;6241584;23;20023;-76
2022/06/30 04:33:15;;;;;;;2.65;2.40;;;23.20;70.20;;;;;;6241689;23;20481;-76
2022/06/30 04:35:41;;;;;;;5.90;2.47;;;23.20;69.30;;;;;;6204321;23;20389;-76
2022/06/30 04:38:07;;;;;;;3.25;2.45;;;23.30;69.60;;;;;;6230646;23;20019;-76
2022/06/30 04:43:17;;;;;;;4.05;2.70;;;23.40;68.90;;;;;;6231179;23;20016;-76
2022/06/30 04:45:43;;;;;;;2.75;2.20;;;23.50;68.50;;;;;;6231353;23;20015;-76
2022/06/30 04:48:11;;;;;;;3.03;2.30;;;23.50;68.80;;;;;;6242055;23;20111;-76
2022/06/30 04:50:37;;;;;;;5.03;2.30;;;23.50;68.20;;;;;;6242269;23;20008;-76
2022/06/30 04:53:03;;;;;;;2.85;2.58;;;23.50;69.00;;;;;;6231586;23;20717;-76
2022/06/30 04:55:29;;;;;;;3.13;2.22;;;23.50;68.10;;;;;;6241918;23;20023;-76
2022/06/30 04:57:55;;;;;;;5.82;2.45;;;23.50;68.40;;;;;;6242005;23;20825;-76
2022/06/30 05:00:21;;;;;;;2.50;2.20;;;23.50;68.60;;;;;;6241291;23;20483;-76
2022/06/30 05:02:46;;;;;;;4.38;2.33;;;23.50;68.70;;;;;;6241789;23;20034;-76
2022/06/30 05:05:12;;;;;;;3.15;2.17;;;23.50;68.00;;;;;;6242118;23;20030;-76
2022/06/30 05:07:38;;;;;;;4.95;2.40;;;23.50;67.80;;;;;;6230929;23;20035;-76
2022/06/30 05:10:04;;;;;;;2.60;2.10;;;23.50;68.20;;;;;;6231328;23;20394;-76
2022/06/30 05:12:30;;;;;;;3.13;2.30;;;23.50;68.10;;;;;;6232232;23;20019;-76
2022/06/30 05:14:55;;;;;;;3.42;2.40;;;23.70;67.90;;;;;;6229315;23;20004;-76
2022/06/30 05:17:21;;;;;;;4.72;2.20;;;23.80;67.40;;;;;;6231074;23;20099;-75
2022/06/30 05:19:47;;;;;;;3.33;2.20;;;23.80;67.30;;;;;;6240919;23;20090;-76
2022/06/30 05:22:13;;;;;;;2.75;2.25;;;23.80;66.80;;;;;;6241182;23;20012;-76
2022/06/30 05:27:23;;;;;;;2.95;2.30;;;23.80;67.70;;;;;;6230605;23;20009;-76
2022/06/30 05:29:49;;;;;;;3.55;2.33;;;23.80;68.00;;;;;;6230292;23;20019;-76
2022/06/30 05:32:15;;;;;;;3.28;2.38;;;23.90;67.80;;;;;;6230972;23;20420;-76
2022/06/30 05:34:40;;;;;;;3.55;2.20;;;24.00;66.60;;;;;;6230950;23;20016;-76
2022/06/30 05:37:06;;;;;;;3.00;2.30;;;24.00;67.50;;;;;;6231035;23;20015;-76
2022/06/30 05:39:35;;;;;;;3.67;2.30;;;24.20;66.20;;;;;;6230742;23;20736;-75
2022/06/30 05:42:01;;;;;;;5.80;2.90;;;24.30;65.90;;;;;;6232036;23;20246;-76
2022/06/30 05:44:28;;;;;;;2.92;2.35;;;24.40;65.40;;;;;;6233184;23;20123;-76
2022/06/30 05:46:55;;;;;;;3.90;2.10;;;24.40;66.00;;;;;;6243302;23;20004;-76
2022/06/30 05:49:24;;;;;;;5.72;2.42;;;24.40;64.90;;;;;;6232734;23;20009;-76
2022/06/30 05:51:51;;;;;;;3.72;2.65;;;24.50;64.40;;;;;;6232475;23;20004;-76
2022/06/30 05:54:16;;;;;;;4.30;2.50;;;24.50;65.00;;;;;;6232416;23;20446;-75
2022/06/30 05:56:42;;;;;;;4.43;2.50;;;24.50;64.60;;;;;;6232401;23;20091;-76
2022/06/30 05:59:08;;;;;;;2.40;2.17;;;24.50;63.70;;;;;;6232603;23;20127;-76
2022/06/30 06:01:34;;;;;;;2.83;2.28;;;24.40;63.90;;;;;;6242884;22;20462;-75
2022/06/30 06:03:59;;;;;;;2.58;2.10;;;24.30;64.30;;;;;;6232459;23;20040;-76
2022/06/30 06:06:25;;;;;;;3.55;2.40;;;24.30;64.20;;;;;;6232979;23;20016;-76
2022/06/30 06:08:51;;;;;;;4.78;2.78;;;24.30;64.50;;;;;;6241849;23;20027;-76
2022/06/30 06:11:16;;;;;;;4.65;2.47;;;24.30;64.40;;;;;;6233595;23;20007;-76
2022/06/30 06:13:42;;;;;;;3.40;2.40;;;24.20;64.40;;;;;;6232474;23;20008;-75
2022/06/30 06:16:08;;;;;;;3.22;2.35;;;24.20;65.20;;;;;;6232513;23;20082;-76
2022/06/30 06:18:34;;;;;;;3.47;2.00;;;24.30;65.20;;;;;;6232538;23;20012;-75
2022/06/30 06:21:00;;;;;;;2.88;2.42;;;24.40;64.60;;;;;;6235449;23;20019;-76
2022/06/30 06:23:26;;;;;;;3.25;2.40;;;24.40;64.50;;;;;;6233991;23;20381;-76
2022/06/30 06:25:52;;;;;;;3.05;2.45;;;24.50;64.40;;;;;;6233476;23;20036;-75
2022/06/30 06:31:02;;;;;;;2.80;2.10;;;24.50;63.90;;;;;;6242231;23;20755;-76
2022/06/30 06:33:28;;;;;;;2.95;2.10;;;24.60;64.40;;;;;;6231891;23;20040;-75
2022/06/30 06:35:54;;;;;;;2.60;2.40;;;24.70;64.00;;;;;;6231038;23;20042;-75
2022/06/30 06:38:20;;;;;;;4.55;2.75;;;24.80;63.80;;;;;;6231984;23;20019;-75
2022/06/30 06:40:46;;;;;;;4.03;2.60;;;24.80;63.10;;;;;;6232000;23;20008;-75
2022/06/30 06:43:12;;;;;;;4.30;2.38;;;24.90;63.20;;;;;;6242493;23;20047;-75
2022/06/30 06:45:37;;;;;;;4.60;2.40;;;24.90;62.50;;;;;;6231792;23;20023;-75
2022/06/30 06:48:03;;;;;;;4.10;2.55;;;24.90;63.30;;;;;;6231577;23;20004;-75
2022/06/30 06:50:29;;;;;;;3.22;2.65;;;25.00;63.20;;;;;;6232283;23;20012;-75
2022/06/30 06:52:55;;;;;;;4.63;2.85;;;25.00;63.20;;;;;;6231619;23;20574;-75
2022/06/30 06:55:21;;;;;;;3.70;2.45;;;25.00;63.60;;;;;;6231735;23;20012;-79
2022/06/30 06:57:48;;;;;;;6.20;2.40;;;25.00;63.00;;;;;;6231969;23;20019;-78
2022/06/30 07:00:14;;;;;;;3.88;2.35;;;25.00;63.40;;;;;;6232211;22;20008;-78
2022/06/30 07:02:42;;;;;;;3.53;2.80;;;24.90;62.50;;;;;;6233464;23;20551;-77
2022/06/30 07:05:08;;;;;;;4.00;2.60;;;24.80;63.30;;;;;;6233121;23;20016;-78
2022/06/30 07:07:35;;;;;;;4.35;2.75;;;24.80;63.60;;;;;;6242593;23;20008;-79
2022/06/30 07:10:01;;;;;;;14.05;10.10;;;24.80;63.30;;;;;;6205460;23;20008;-72
2022/06/30 07:12:27;;;;;;;6.70;3.28;;;24.90;63.80;;;;;;6205686;23;20015;-77
2022/06/30 07:14:52;;;;;;;3.55;2.70;;;25.00;62.90;;;;;;6205141;23;20090;-79
2022/06/30 07:17:19;;;;;;;4.53;2.80;;;25.00;63.30;;;;;;6232202;23;20018;-78
2022/06/30 07:19:45;;;;;;;3.13;2.83;;;25.00;63.10;;;;;;6231594;23;20696;-77
2022/06/30 07:22:11;;;;;;;2.88;2.65;;;25.10;63.60;;;;;;6230471;23;20016;-77
2022/06/30 07:24:37;;;;;;;3.33;2.60;;;25.00;63.20;;;;;;6232306;23;20004;-78
2022/06/30 07:27:03;;;;;;;3.63;2.90;;;25.00;63.50;;;;;;6232449;23;20756;-78
2022/06/30 07:29:30;;;;;;;12.90;8.93;;;25.10;63.00;;;;;;6231802;23;20050;-79
2022/06/30 07:31:57;;;;;;;6.43;2.92;;;25.10;63.10;;;;;;6232602;23;20016;-78
2022/06/30 07:34:22;;;;;;;3.50;2.88;;;25.10;62.70;;;;;;6232581;23;20012;-79
2022/06/30 07:36:49;;;;;;;4.20;2.65;;;25.20;63.20;;;;;;6232566;23;20083;-79
2022/06/30 07:39:14;;;;;;;4.35;2.83;;;25.30;63.10;;;;;;6232299;23;20454;-79
2022/06/30 07:41:40;;;;;;;7.82;3.38;;;25.30;62.50;;;;;;6231933;23;20134;-79
2022/06/30 07:44:06;;;;;;;4.95;2.95;;;25.30;62.80;;;;;;6242889;23;20008;-79
2022/06/30 07:46:32;;;;;;;3.55;2.83;;;25.30;62.80;;;;;;6241742;23;20019;-75
2022/06/30 07:48:58;;;;;;;3.22;2.88;;;25.40;63.00;;;;;;6241754;23;20011;-78
2022/06/30 07:51:24;;;;;;;4.95;3.30;;;25.40;63.00;;;;;;6204215;23;20027;-79
2022/06/30 07:53:49;;;;;;;5.35;2.80;;;25.50;62.90;;;;;;6232502;23;20083;-78
2022/06/30 07:56:16;;;;;;;3.83;2.70;;;25.70;62.70;;;;;;6204558;23;20422;-78
2022/06/30 07:58:42;;;;;;;3.58;2.78;;;25.80;61.80;;;;;;6230423;23;20043;-78
2022/06/30 08:01:08;;;;;;;5.70;2.85;;;25.80;61.50;;;;;;6241970;23;20032;-77
2022/06/30 08:03:34;;;;;;;3.67;2.65;;;25.90;61.40;;;;;;6231539;23;20442;-78
2022/06/30 08:06:00;;;;;;;4.75;2.65;;;25.80;61.80;;;;;;6214493;23;20004;-78
2022/06/30 08:08:26;;;;;;;4.30;3.08;;;25.80;61.60;;;;;;6231369;23;20016;-80
2022/06/30 08:10:53;;;;;;;4.20;3.28;;;25.80;62.30;;;;;;6204543;23;20016;-79
2022/06/30 08:13:19;;;;;;;3.58;2.78;;;25.80;62.80;;;;;;6203354;23;20065;-75
2022/06/30 08:15:45;;;;;;;2.97;2.65;;;25.80;62.80;;;;;;6231061;23;20011;-76
2022/06/30 08:18:11;;;;;;;3.28;2.85;;;25.80;62.60;;;;;;6230933;23;20678;-77
2022/06/30 08:20:37;;;;;;;4.95;3.30;;;25.80;62.80;;;;;;6230580;23;20115;-72
2022/06/30 08:23:03;;;;;;;4.25;3.15;;;25.90;62.90;;;;;;6231139;23;20039;-75
2022/06/30 08:25:29;;;;;;;4.47;2.67;;;26.00;62.60;;;;;;6242795;23;20004;-75
2022/06/30 08:27:55;;;;;;;4.15;3.30;;;26.00;62.70;;;;;;6232944;23;20016;-74
2022/06/30 08:30:22;;;;;;;5.53;3.85;;;26.20;62.90;;;;;;6231021;23;20494;-73
2022/06/30 08:32:48;;;;;;;6.03;3.45;;;26.20;62.60;;;;;;6232074;23;20008;-75
2022/06/30 08:35:15;;;;;;;6.57;3.22;;;26.20;63.00;;;;;;6230140;23;20091;-75
2022/06/30 08:37:41;;;;;;;4.35;3.08;;;26.30;62.40;;;;;;6231194;23;20008;-75
2022/06/30 08:42:53;;;;;;;;;;;26.50;61.90;;;;;;6231591;23;20442;-70
2022/06/30 08:45:20;;;;;;;4.70;3.67;;;26.60;61.60;;;;;;6231541;23;19914;-77
2022/06/30 08:47:48;;;;;;;6.72;3.65;;;26.50;61.70;;;;;;6240446;23;20087;-76
2022/06/30 08:50:16;;;;;;;4.47;3.38;;;26.50;61.80;;;;;;6240450;23;20027;-77
2022/06/30 08:52:52;;;;;;;4.32;3.38;;;26.50;62.90;;;;;;6204071;23;20004;-76
2022/06/30 08:55:29;;;;;;;3.70;3.38;;;26.50;62.40;;;;;;6230569;23;20082;-76
2022/06/30 08:58:05;;;;;;;4.43;3.20;;;26.60;62.40;;;;;;6230323;23;20013;-75
2022/06/30 09:00:33;;;;;;;6.63;3.78;;;26.60;62.40;;;;;;6231215;22;20015;-75
2022/06/30 09:02:59;;;;;;;6.43;3.53;;;26.90;61.90;;;;;;6231354;23;20371;-75
2022/06/30 09:05:25;;;;;;;8.27;3.80;;;26.90;61.90;;;;;;6231034;23;20020;-75
2022/06/30 09:07:51;;;;;;;5.43;4.10;;;26.90;61.30;;;;;;6203308;23;20054;-75
2022/06/30 09:10:16;;;;;;;4.30;3.70;;;27.00;60.80;;;;;;6239734;23;20028;-75
2022/06/30 09:12:58;;;;;;;6.30;3.83;;;27.10;60.50;;;;;;6230244;23;20777;-75
2022/06/30 09:15:27;;;;;;;6.97;3.70;;;27.10;61.20;;;;;;6230795;23;20062;-78
2022/06/30 09:17:53;;;;;;;5.53;3.70;;;27.20;60.70;;;;;;6232807;23;20028;-76
2022/06/30 09:20:32;;;;;;;5.97;3.70;;;27.20;60.50;;;;;;6232201;23;20016;-77
2022/06/30 09:22:59;;;;;;;8.07;3.80;;;27.30;60.10;;;;;;6205743;23;20012;-78
2022/06/30 09:25:30;;;;;;;6.25;3.95;;;27.30;60.80;;;;;;6232766;23;20012;-70
2022/06/30 09:27:56;;;;;;;5.03;3.60;;;27.30;60.40;;;;;;6243127;23;20011;-78
2022/06/30 09:30:24;;;;;;;6.22;4.07;;;27.20;60.60;;;;;;6232241;23;20012;-76
2022/06/30 09:33:04;;;;;;;6.43;4.10;;;27.20;61.10;;;;;;6233277;23;20022;-76
2022/06/30 09:35:30;;;;;;;4.80;4.03;;;27.30;59.50;;;;;;6232752;23;20106;-75
2022/06/30 09:38:07;;;;;;;7.45;5.18;;;27.30;59.30;;;;;;6233285;23;20091;-78
2022/06/30 09:40:34;;;;;;;5.28;3.35;;;27.30;60.20;;;;;;6232196;23;20150;-68
2022/06/30 09:43:01;;;;;;;10.07;4.07;;;27.40;60.60;;;;;;6232838;23;20026;-68
2022/06/30 09:45:38;;;;;;;10.15;4.47;;;27.50;60.50;;;;;;6231067;23;20016;-75
2022/06/30 09:48:05;;;;;;;5.85;3.90;;;27.60;59.90;;;;;;6230691;23;20012;-72
2022/06/30 09:50:31;;;;;;;8.45;3.47;;;27.60;60.00;;;;;;6241101;23;20008;-70
2022/06/30 09:53:03;;;;;;;4.28;3.65;;;27.60;60.70;;;;;;6232239;23;20015;-71
2022/06/30 09:55:44;;;;;;;6.20;3.42;;;27.70;60.60;;;;;;6232357;23;20015;-73
2022/06/30 09:58:16;;;;;;;4.75;3.78;;;27.80;59.20;;;;;;6241851;23;20062;-74
2022/06/30 10:00:50;;;;;;;9.82;8.18;;;27.90;59.10;;;;;;6205079;23;20951;-73
2022/06/30 10:03:17;;;;;;;8.65;4.55;;;27.90;59.60;;;;;;6231654;23;20015;-74
2022/06/30 10:05:45;;;;;;;5.32;3.85;;;28.00;58.80;;;;;;6232146;23;20097;-74
2022/06/30 10:08:12;;;;;;;5.53;3.85;;;28.20;59.00;;;;;;6241435;23;20026;-69
2022/06/30 10:10:43;;;;;;;5.47;4.10;;;28.00;58.50;;;;;;6232296;23;20062;-73
2022/06/30 10:13:14;;;;;;;6.63;3.75;;;28.00;59.10;;;;;;6229630;23;20012;-72
2022/06/30 10:15:41;;;;;;;6.38;4.00;;;28.00;59.40;;;;;;6239664;23;20008;-73
2022/06/30 10:18:08;;;;;;;5.85;4.57;;;28.10;59.10;;;;;;6229015;23;20826;-72
2022/06/30 10:20:38;;;;;;;6.32;4.05;;;28.20;59.90;;;;;;6229165;23;20016;-71
2022/06/30 10:23:08;;;;;;;4.72;4.15;;;28.30;58.90;;;;;;6238805;23;20012;-73
2022/06/30 10:25:36;;;;;;;6.00;3.83;;;28.30;58.40;;;;;;6227825;23;20020;-72
2022/06/30 10:28:03;;;;;;;5.72;4.05;;;28.30;58.80;;;;;;6229587;23;20016;-72
2022/06/30 10:30:56;;;;;;;7.22;4.68;;;28.40;59.10;;;;;;6230774;23;20004;-72
2022/06/30 10:33:37;;;;;;;4.57;4.03;;;28.30;58.50;;;;;;6203689;23;20053;-72
2022/06/30 10:36:30;;;;;;;9.75;4.10;;;28.50;59.30;;;;;;6231347;23;20042;-72
2022/06/30 10:39:11;;;;;;;7.18;3.95;;;28.60;58.50;;;;;;6212033;23;20035;-72
2022/06/30 10:41:48;;;;;;;4.55;3.60;;;28.70;58.00;;;;;;6231928;23;20327;-77
2022/06/30 10:44:19;;;;;;;5.53;3.97;;;28.70;58.10;;;;;;6232721;23;20012;-77
2022/06/30 10:46:45;;;;;;;9.20;4.00;;;28.70;58.50;;;;;;6229446;23;20173;-75
2022/06/30 10:49:13;;;;;;;4.35;3.95;;;28.80;58.20;;;;;;6227310;23;20789;-76
2022/06/30 10:51:39;;;;;;;10.63;3.78;;;28.80;57.80;;;;;;6204472;23;20035;-75
2022/06/30 10:54:06;;;;;;;6.43;3.90;;;28.90;58.30;;;;;;6230573;23;20075;-75
2022/06/30 10:56:53;;;;;;;6.50;3.75;;;29.00;58.40;;;;;;6230207;23;20760;-76
2022/06/30 10:59:41;;;;;;;4.00;3.55;;;29.20;57.60;;;;;;6229679;23;20512;-76
2022/06/30 11:02:07;;;;;;;5.50;3.63;;;29.20;57.10;;;;;;6230606;23;20026;-76
2022/06/30 11:04:37;;;;;;;6.80;4.97;;;29.20;57.40;;;;;;6240296;23;20012;-76
2022/06/30 11:07:14;;;;;;;3.63;3.33;;;29.30;56.50;;;;;;6204561;23;20016;-76
2022/06/30 11:09:49;;;;;;;5.07;3.85;;;29.40;57.00;;;;;;6230064;23;20012;-71
2022/06/30 11:12:36;;;;;;;5.93;3.53;;;29.40;56.40;;;;;;6232088;23;20446;-75
2022/06/30 11:15:03;;;;;;;5.50;4.30;;;29.40;56.20;;;;;;6231406;23;20016;-71
2022/06/30 11:17:30;;;;;;;3.92;3.45;;;29.50;56.50;;;;;;6231950;23;20095;-77
2022/06/30 11:20:00;;;;;;;6.03;3.92;;;29.50;55.90;;;;;;6241341;23;20047;-77
2022/06/30 11:22:28;;;;;;;4.82;3.70;;;29.50;55.50;;;;;;6242374;23;20107;-75
2022/06/30 11:24:58;;;;;;;3.88;3.30;;;29.60;55.70;;;;;;6231124;23;20039;-75
2022/06/30 11:27:25;;;;;;;5.22;4.72;;;29.50;56.30;;;;;;6231606;23;20087;-76
2022/06/30 11:30:03;;;;;;;4.00;3.60;;;29.50;56.50;;;;;;6241350;23;20008;-75
2022/06/30 11:32:29;;;;;;;4.97;3.47;;;29.60;55.80;;;;;;6231420;23;20008;-75
2022/06/30 11:34:56;;;;;;;4.82;3.50;;;29.60;55.80;;;;;;6231405;23;20057;-75
2022/06/30 11:37:24;;;;;;;5.80;3.25;;;29.60;55.10;;;;;;6230688;23;20015;-75
2022/06/30 11:40:05;;;;;;;5.55;3.80;;;29.50;55.50;;;;;;6229518;23;20015;-75
2022/06/30 11:42:31;;;;;;;7.03;4.15;;;29.40;54.90;;;;;;6240856;23;20008;-75
2022/06/30 11:44:57;;;;;;;7.63;3.97;;;29.30;55.30;;;;;;6231600;23;20019;-75
2022/06/30 11:47:24;;;;;;;4.72;3.90;;;29.30;56.20;;;;;;6240579;23;20008;-76
2022/06/30 11:49:59;;;;;;;4.28;3.80;;;29.50;56.40;;;;;;6230758;23;20033;-75
2022/06/30 11:52:38;;;;;;;4.53;3.70;;;29.60;56.80;;;;;;6230906;23;20091;-76
2022/06/30 11:55:14;;;;;;;7.03;4.15;;;29.60;55.60;;;;;;6230177;23;20015;-76
2022/06/30 11:57:46;;;;;;;3.67;3.30;;;29.60;55.10;;;;;;6230867;23;20872;-76
2022/06/30 12:00:17;;;;;;;8.30;4.03;;;29.50;55.40;;;;;;6231380;22;20008;-77
2022/06/30 12:02:44;;;;;;;4.53;3.35;;;29.50;55.50;;;;;;6231060;23;20012;-76
2022/06/30 12:05:13;;;;;;;5.30;3.35;;;29.50;55.50;;;;;;6240848;23;20015;-75
2022/06/30 12:07:40;;;;;;;5.60;4.30;;;29.50;56.00;;;;;;6241465;23;20012;-76
2022/06/30 12:10:09;;;;;;;17.00;11.00;;;29.50;55.70;;;;;;6230276;23;20011;-76
2022/06/30 12:12:36;;;;;;;4.18;3.78;;;29.50;55.70;;;;;;6230147;23;20012;-76
2022/06/30 12:15:10;;;;;;;6.72;3.95;;;29.60;55.80;;;;;;6241098;23;20409;-72
2022/06/30 12:17:38;;;;;;;5.90;4.10;;;29.60;56.10;;;;;;6240628;23;20019;-73
2022/06/30 12:20:06;;;;;;;4.88;3.78;;;29.70;55.70;;;;;;6230818;23;20042;-73
2022/06/30 12:22:33;;;;;;;6.43;3.95;;;29.80;56.00;;;;;;6230829;23;20509;-73
2022/06/30 12:25:00;;;;;;;5.35;3.75;;;29.90;55.50;;;;;;6230211;23;20023;-73
2022/06/30 12:27:26;;;;;;;4.75;4.03;;;29.90;55.20;;;;;;6230818;23;20012;-75
2022/06/30 12:29:57;;;;;;;5.18;4.13;;;29.80;54.50;;;;;;6230664;23;20022;-72
2022/06/30 12:32:22;;;;;;;6.13;3.67;;;29.70;55.20;;;;;;6230110;23;20020;-73
2022/06/30 12:34:59;;;;;;;3.85;3.45;;;29.70;55.60;;;;;;6241398;23;20744;-73
2022/06/30 12:37:28;;;;;;;6.20;3.70;;;29.70;55.30;;;;;;6230480;23;20087;-76
2022/06/30 12:39:56;;;;;;;4.78;3.80;;;29.70;55.10;;;;;;6230009;23;20008;-75
2022/06/30 12:42:22;;;;;;;5.22;3.65;;;29.80;54.70;;;;;;6229026;23;20020;-72
2022/06/30 12:44:47;;;;;;;5.38;3.92;;;29.80;54.60;;;;;;6231300;23;20012;-71
2022/06/30 12:47:14;;;;;;;3.80;3.38;;;29.80;54.80;;;;;;6240656;23;20083;-71
2022/06/30 12:49:41;;;;;;;3.75;3.30;;;30.00;53.80;;;;;;6241477;23;20014;-72
2022/06/30 12:52:18;;;;;;;5.43;3.40;;;30.00;55.00;;;;;;6232211;23;20018;-72
2022/06/30 12:54:58;;;;;;;6.18;3.53;;;30.10;54.50;;;;;;6233209;23;20015;-72
2022/06/30 12:57:26;;;;;;;4.78;3.70;;;30.20;54.70;;;;;;6233211;23;20028;-71
2022/06/30 12:59:54;;;;;;;4.40;3.53;;;30.40;54.30;;;;;;6241784;23;20012;-71
2022/06/30 13:02:21;;;;;;;4.57;3.63;;;30.50;54.20;;;;;;6229812;23;20015;-71
2022/06/30 13:04:52;;;;;;;4.18;3.72;;;30.60;53.00;;;;;;6229951;23;20012;-72
2022/06/30 13:07:21;;;;;;;6.45;3.30;;;30.60;53.50;;;;;;6230270;23;20008;-71
2022/06/30 13:09:49;;;;;;;6.03;3.35;;;30.50;52.20;;;;;;6239940;23;20422;-71